EGYH

Holbeach Airport

United Kingdom
METAR EGYH 120850Z 15012KT 9999 SCT035 04/02 Q1024 BLU
Observed Flight Rules
Dec-12 @ 08:50 UTC (an hour ago) Visual Flight Rules
Wind Visibility Clouds
150° at 12 knots 10,000+ meters
  • Scattered at 3,500' AGL
Temperatures Readings
Current 4°C / 39°F
Dewpoint 2°C / 36°F
Humidity 87%
Altimeter 30.24" Hg
Pressure 1024 hPa
Elevation 3
METAR EGYH 120850Z 15012KT 9999 SCT035 04/02 Q1024 BLU
Observed Flight Rules
Dec-12 @ 08:50 UTC
(an hour ago)
VFR
Wind Visibility
150° at 12 knots 10,000+ meters
Clouds
  • Scattered at 3,500' AGL
Temperature Dewpoint
4°C / 39°F 2°C / 36°F
Humidity Altimeter Pressure
87% 30.24" Hg 1024 hPa